createdAt,value
2019-06-20T00:00:16.967Z,1003.25
2019-06-20T00:01:16.963Z,1003.30
2019-06-20T00:02:16.952Z,1003.32
2019-06-20T00:03:16.931Z,1003.28
2019-06-20T00:04:16.933Z,1003.40
2019-06-20T00:05:16.915Z,1003.46
2019-06-20T00:06:16.907Z,1003.57
2019-06-20T00:07:16.894Z,1003.61
2019-06-20T00:08:16.879Z,1003.63
2019-06-20T00:09:16.878Z,1003.64
2019-06-20T00:10:16.861Z,1003.66
2019-06-20T00:11:16.850Z,1003.63
2019-06-20T00:12:16.836Z,1003.53
2019-06-20T00:13:16.826Z,1003.47
2019-06-20T00:14:16.830Z,1003.41
2019-06-20T00:15:16.810Z,1003.47
2019-06-20T00:16:16.788Z,1003.58
2019-06-20T00:17:16.786Z,1003.69
2019-06-20T00:18:16.775Z,1003.67
2019-06-20T00:19:16.773Z,1003.67
2019-06-20T00:20:16.750Z,1003.73
2019-06-20T00:21:16.745Z,1003.69
2019-06-20T00:22:16.737Z,1003.69
2019-06-20T00:23:16.734Z,1003.66
2019-06-20T00:24:16.710Z,1003.65
2019-06-20T00:25:16.708Z,1003.64
2019-06-20T00:26:16.686Z,1003.63
2019-06-20T00:27:16.677Z,1003.63
2019-06-20T00:28:16.664Z,1003.53
2019-06-20T00:29:16.688Z,1003.45
2019-06-20T00:30:16.643Z,1003.37
2019-06-20T00:31:16.626Z,1003.36
2019-06-20T00:32:16.621Z,1003.23
2019-06-20T00:33:16.613Z,1003.17
2019-06-20T00:34:16.603Z,1003.08
2019-06-20T00:35:16.600Z,1003.06
2019-06-20T00:36:16.599Z,1002.95
2019-06-20T00:37:16.566Z,1002.85
2019-06-20T00:38:16.567Z,1002.83
2019-06-20T00:39:16.538Z,1002.79
2019-06-20T00:40:16.533Z,1002.76
2019-06-20T00:41:16.544Z,1002.74
2019-06-20T00:42:16.511Z,1002.68
2019-06-20T00:43:18.252Z,1002.65
2019-06-20T00:44:16.491Z,1002.67
2019-06-20T00:45:16.492Z,1002.63
2019-06-20T00:46:16.481Z,1002.58
2019-06-20T00:47:16.458Z,1002.52
2019-06-20T00:48:16.442Z,1002.48
2019-06-20T00:49:16.435Z,1002.52
2019-06-20T00:50:16.424Z,1002.51
2019-06-20T00:51:16.419Z,1002.48
2019-06-20T00:52:16.398Z,1002.47
2019-06-20T00:53:16.390Z,1002.49
2019-06-20T00:54:16.397Z,1002.51
2019-06-20T00:55:16.386Z,1002.52
2019-06-20T00:56:16.370Z,1002.57
2019-06-20T00:57:16.350Z,1002.58
2019-06-20T00:58:16.337Z,1002.68
2019-06-20T00:59:16.322Z,1002.76
2019-06-20T01:00:16.315Z,1002.88
2019-06-20T01:01:16.354Z,1003.02
2019-06-20T01:02:16.299Z,1003.19
2019-06-20T01:03:16.311Z,1003.28
2019-06-20T01:04:16.275Z,1003.20
2019-06-20T01:05:16.262Z,1003.28
2019-06-20T01:06:16.270Z,1003.29
2019-06-20T01:07:16.244Z,1003.27
2019-06-20T01:08:16.229Z,1003.39
2019-06-20T01:09:16.258Z,1003.39
2019-06-20T01:10:16.217Z,1003.28
2019-06-20T01:11:16.199Z,1003.28
2019-06-20T01:12:16.192Z,1003.38
2019-06-20T01:13:32.286Z,1003.36
2019-06-20T01:14:17.186Z,1003.44
2019-06-20T01:15:16.152Z,1003.53
2019-06-20T01:16:16.138Z,1003.64
2019-06-20T01:17:16.154Z,1003.65
2019-06-20T01:18:16.121Z,1003.58
2019-06-20T01:19:16.115Z,1003.49
2019-06-20T01:20:16.097Z,1003.45
2019-06-20T01:21:16.091Z,1003.40
2019-06-20T01:22:16.077Z,1003.43
2019-06-20T01:23:16.072Z,1003.46
2019-06-20T01:24:16.052Z,1003.58
2019-06-20T01:25:16.047Z,1003.66
2019-06-20T01:26:16.041Z,1003.67
2019-06-20T01:27:16.025Z,1003.57
2019-06-20T01:28:16.019Z,1003.48
2019-06-20T01:29:16.015Z,1003.41
2019-06-20T01:30:15.989Z,1003.40
2019-06-20T01:31:15.986Z,1003.43
2019-06-20T01:32:15.975Z,1003.48
2019-06-20T01:33:15.994Z,1003.47
2019-06-20T01:34:15.945Z,1003.52
2019-06-20T01:35:15.942Z,1003.47
2019-06-20T01:36:15.924Z,1003.45
2019-06-20T01:37:15.921Z,1003.34
2019-06-20T01:38:15.906Z,1003.29
2019-06-20T01:39:15.914Z,1003.28
2019-06-20T01:40:15.886Z,1003.30
2019-06-20T01:41:15.870Z,1003.38
2019-06-20T01:42:15.863Z,1003.43
2019-06-20T01:43:15.852Z,1003.48
2019-06-20T01:44:15.859Z,1003.50
2019-06-20T01:45:15.828Z,1003.47
2019-06-20T01:46:15.817Z,1003.40
2019-06-20T01:47:15.808Z,1003.39
2019-06-20T01:48:15.802Z,1003.39
2019-06-20T01:49:15.798Z,1003.39
2019-06-20T01:50:15.771Z,1003.43
2019-06-20T01:51:15.762Z,1003.51
2019-06-20T01:52:15.782Z,1003.56
2019-06-20T01:53:15.737Z,1003.54
2019-06-20T01:54:15.762Z,1003.50
2019-06-20T01:55:15.717Z,1003.46
2019-06-20T01:56:15.704Z,1003.45
2019-06-20T01:57:15.695Z,1003.42
2019-06-20T01:58:15.684Z,1003.41
2019-06-20T01:59:15.673Z,1003.45
2019-06-20T02:00:15.679Z,1003.47
2019-06-20T02:01:15.661Z,1003.44
2019-06-20T02:02:15.641Z,1003.44
2019-06-20T02:03:15.631Z,1003.37
2019-06-20T02:04:15.614Z,1003.32
2019-06-20T02:05:15.619Z,1003.32
2019-06-20T02:06:15.607Z,1003.34
2019-06-20T02:07:15.588Z,1003.31
2019-06-20T02:08:15.583Z,1003.28
2019-06-20T02:09:15.558Z,1003.29
2019-06-20T02:10:15.547Z,1003.30
2019-06-20T02:11:15.550Z,1003.31
2019-06-20T02:12:15.535Z,1003.36
2019-06-20T02:13:15.514Z,1003.33
2019-06-20T02:14:15.509Z,1003.34
2019-06-20T02:15:15.497Z,1003.33
2019-06-20T02:16:15.613Z,1003.39
2019-06-20T02:17:15.478Z,1003.37
2019-06-20T02:18:15.517Z,1003.32
2019-06-20T02:19:15.450Z,1003.31
2019-06-20T02:20:15.446Z,1003.28
2019-06-20T02:21:15.430Z,1003.30
2019-06-20T02:22:15.442Z,1003.28
2019-06-20T02:23:15.406Z,1003.30
2019-06-20T02:24:15.392Z,1003.20
2019-06-20T02:25:15.465Z,1003.23
2019-06-20T02:26:15.372Z,1003.19
2019-06-20T02:27:15.364Z,1003.15
2019-06-20T02:28:15.354Z,1003.17
2019-06-20T02:29:15.343Z,1003.16
2019-06-20T02:30:15.327Z,1003.20
2019-06-20T02:31:15.351Z,1003.16
2019-06-20T02:32:15.312Z,1003.19
2019-06-20T02:33:15.296Z,1003.13
2019-06-20T02:34:15.309Z,1003.18
2019-06-20T02:35:15.277Z,1003.14
2019-06-20T02:36:15.270Z,1003.15
2019-06-20T02:37:15.265Z,1003.12
2019-06-20T02:38:15.250Z,1003.13
2019-06-20T02:39:15.236Z,1003.12
2019-06-20T02:40:15.223Z,1003.15
2019-06-20T02:41:15.211Z,1003.17
2019-06-20T02:42:15.214Z,1003.17
2019-06-20T02:43:15.188Z,1003.21
2019-06-20T02:44:29.354Z,1003.20
2019-06-20T02:45:16.167Z,1003.23
2019-06-20T02:46:15.161Z,1003.27
2019-06-20T02:47:15.177Z,1003.25
2019-06-20T02:48:15.137Z,1003.35
2019-06-20T02:49:15.151Z,1003.42
2019-06-20T02:50:15.117Z,1003.47
2019-06-20T02:51:15.101Z,1003.54
2019-06-20T02:52:15.094Z,1003.58
2019-06-20T02:53:15.083Z,1003.60
2019-06-20T02:54:15.067Z,1003.65
2019-06-20T02:55:15.123Z,1003.63
2019-06-20T02:56:15.043Z,1003.66
2019-06-20T02:57:15.039Z,1003.71
2019-06-20T02:58:15.028Z,1003.74
2019-06-20T02:59:15.020Z,1003.76
2019-06-20T03:00:15.003Z,1003.79
2019-06-20T03:01:15.011Z,1003.77
2019-06-20T03:02:14.983Z,1003.77
2019-06-20T03:03:14.995Z,1003.76
2019-06-20T03:04:14.976Z,1003.76
2019-06-20T03:05:14.961Z,1003.76
2019-06-20T03:06:14.950Z,1003.78
2019-06-20T03:07:14.932Z,1003.82
2019-06-20T03:08:14.918Z,1003.89
2019-06-20T03:09:14.909Z,1004.00
2019-06-20T03:10:14.907Z,1004.05
2019-06-20T03:11:14.889Z,1004.15
2019-06-20T03:12:14.871Z,1004.20
2019-06-20T03:13:14.866Z,1004.33
2019-06-20T03:14:14.851Z,1004.33
2019-06-20T03:15:14.861Z,1004.31
2019-06-20T03:16:14.832Z,1004.34
2019-06-20T03:17:14.822Z,1004.25
2019-06-20T03:18:14.811Z,1004.32
2019-06-20T03:19:14.834Z,1004.18
2019-06-20T03:20:14.794Z,1004.16
2019-06-20T03:21:14.780Z,1004.15
2019-06-20T03:22:14.767Z,1004.11
2019-06-20T03:23:14.771Z,1004.07
2019-06-20T03:24:14.742Z,1004.07
2019-06-20T03:25:14.738Z,1004.02
2019-06-20T03:26:14.736Z,1004.01
2019-06-20T03:27:14.720Z,1004.01
2019-06-20T03:28:14.723Z,1003.99
2019-06-20T03:29:14.686Z,1003.95
2019-06-20T03:30:14.684Z,1003.93
2019-06-20T03:31:14.699Z,1003.89
2019-06-20T03:32:14.659Z,1003.92
2019-06-20T03:33:14.646Z,1003.89
2019-06-20T03:34:14.634Z,1003.89
2019-06-20T03:35:14.628Z,1003.87
2019-06-20T03:36:14.627Z,1003.87
2019-06-20T03:37:14.613Z,1003.81
2019-06-20T03:38:14.609Z,1003.82
2019-06-20T03:39:14.587Z,1003.84
2019-06-20T03:40:14.576Z,1003.86
2019-06-20T03:41:14.559Z,1003.86
2019-06-20T03:42:14.566Z,1003.87
2019-06-20T03:43:14.545Z,1003.83
2019-06-20T03:44:14.527Z,1003.78
2019-06-20T03:45:14.523Z,1003.73
2019-06-20T03:46:14.508Z,1003.75
2019-06-20T03:47:14.522Z,1003.77
2019-06-20T03:48:14.487Z,1003.81
2019-06-20T03:49:14.471Z,1003.80
2019-06-20T03:50:14.459Z,1003.88
2019-06-20T03:51:14.453Z,1003.87
2019-06-20T03:52:14.436Z,1003.92
2019-06-20T03:53:14.449Z,1003.92
2019-06-20T03:54:14.420Z,1003.99
2019-06-20T03:55:14.413Z,1003.97
2019-06-20T03:56:14.397Z,1003.97
2019-06-20T03:57:14.409Z,1003.96
2019-06-20T03:58:14.382Z,1003.95
2019-06-20T03:59:14.368Z,1004.00
2019-06-20T04:00:14.358Z,1003.95
2019-06-20T04:01:14.347Z,1003.91
2019-06-20T04:02:14.368Z,1003.88
2019-06-20T04:03:14.317Z,1003.84
2019-06-20T04:04:14.307Z,1003.77
2019-06-20T04:05:14.295Z,1003.77
2019-06-20T04:06:14.290Z,1003.71
2019-06-20T04:07:14.280Z,1003.70
2019-06-20T04:08:14.287Z,1003.77
2019-06-20T04:09:14.254Z,1003.66
2019-06-20T04:10:14.304Z,1003.71
2019-06-20T04:11:14.235Z,1003.70
2019-06-20T04:12:14.224Z,1003.70
2019-06-20T04:13:14.222Z,1003.72
2019-06-20T04:14:14.210Z,1003.66
2019-06-20T04:15:19.165Z,1003.66
2019-06-20T04:16:15.174Z,1003.67
2019-06-20T04:17:14.170Z,1003.69
2019-06-20T04:18:14.157Z,1003.70
2019-06-20T04:19:14.167Z,1003.71
2019-06-20T04:20:14.163Z,1003.70
2019-06-20T04:21:14.120Z,1003.70
2019-06-20T04:22:14.114Z,1003.75
2019-06-20T04:23:14.097Z,1003.72
2019-06-20T04:24:14.109Z,1003.71
2019-06-20T04:25:14.083Z,1003.71
2019-06-20T04:26:14.070Z,1003.70
2019-06-20T04:27:14.058Z,1003.76
2019-06-20T04:28:14.051Z,1003.79
2019-06-20T04:29:14.059Z,1003.78
2019-06-20T04:30:14.027Z,1003.76
2019-06-20T04:31:14.016Z,1003.73
2019-06-20T04:32:13.998Z,1003.77
2019-06-20T04:33:13.997Z,1003.78
2019-06-20T04:34:13.983Z,1003.84
2019-06-20T04:35:13.989Z,1003.83
2019-06-20T04:36:13.961Z,1003.85
2019-06-20T04:37:13.950Z,1003.89
2019-06-20T04:38:13.933Z,1003.93
2019-06-20T04:39:19.306Z,1003.95
2019-06-20T04:40:14.945Z,1003.95
2019-06-20T04:41:13.899Z,1004.00
2019-06-20T04:42:13.898Z,1004.05
2019-06-20T04:43:13.896Z,1004.06
2019-06-20T04:44:13.875Z,1004.11
2019-06-20T04:45:13.857Z,1004.11
2019-06-20T04:46:13.848Z,1004.14
2019-06-20T04:47:13.840Z,1004.14
2019-06-20T04:48:13.835Z,1004.15
2019-06-20T04:49:13.820Z,1004.13
2019-06-20T04:50:13.803Z,1004.15
2019-06-20T04:51:13.834Z,1004.16
2019-06-20T04:52:13.786Z,1004.17
2019-06-20T04:53:13.821Z,1004.16
2019-06-20T04:54:13.761Z,1004.12
2019-06-20T04:55:13.757Z,1004.10
2019-06-20T04:56:13.739Z,1004.08
2019-06-20T04:57:13.755Z,1004.09
2019-06-20T04:58:13.724Z,1004.08
2019-06-20T04:59:13.713Z,1004.05
2019-06-20T05:00:13.702Z,1004.05
2019-06-20T05:01:13.685Z,1004.05
2019-06-20T05:02:14.994Z,1004.06
2019-06-20T05:03:13.664Z,1003.99
2019-06-20T05:04:13.689Z,1003.99
2019-06-20T05:05:13.962Z,1004.02
2019-06-20T05:06:13.637Z,1003.97
2019-06-20T05:07:13.621Z,1003.97
2019-06-20T05:08:13.617Z,1004.03
2019-06-20T05:09:13.607Z,1004.03
2019-06-20T05:10:13.617Z,1004.10
2019-06-20T05:11:13.586Z,1004.15
2019-06-20T05:12:13.574Z,1004.23
2019-06-20T05:13:13.565Z,1004.19
2019-06-20T05:14:13.607Z,1004.20
2019-06-20T05:15:13.537Z,1004.20
2019-06-20T05:16:13.530Z,1004.16
2019-06-20T05:17:13.516Z,1004.16
2019-06-20T05:18:13.509Z,1004.24
2019-06-20T05:19:13.509Z,1004.29
2019-06-20T05:20:13.499Z,1004.30
2019-06-20T05:21:13.477Z,1004.29
2019-06-20T05:22:13.474Z,1004.28
2019-06-20T05:23:13.451Z,1004.26
2019-06-20T05:24:13.441Z,1004.26
2019-06-20T05:25:13.443Z,1004.21
2019-06-20T05:26:13.425Z,1004.24
2019-06-20T05:27:13.412Z,1004.21
2019-06-20T05:28:13.403Z,1004.17
2019-06-20T05:29:13.392Z,1004.12
2019-06-20T05:30:13.423Z,1004.19
2019-06-20T05:31:13.373Z,1004.16
2019-06-20T05:32:13.361Z,1004.15
2019-06-20T05:33:13.356Z,1004.09
2019-06-20T05:34:13.345Z,1003.99
2019-06-20T05:35:13.327Z,1003.92
2019-06-20T05:36:13.345Z,1003.86
2019-06-20T05:37:13.308Z,1003.82
2019-06-20T05:38:13.303Z,1003.80
2019-06-20T05:39:13.293Z,1003.78
2019-06-20T05:40:13.274Z,1003.75
2019-06-20T05:41:13.288Z,1003.71
2019-06-20T05:42:13.259Z,1003.68
2019-06-20T05:43:13.247Z,1003.70
2019-06-20T05:44:13.241Z,1003.73
2019-06-20T05:45:13.217Z,1003.74
2019-06-20T05:46:13.213Z,1003.71
2019-06-20T05:47:14.115Z,1003.67
2019-06-20T05:48:13.191Z,1003.65
2019-06-20T05:49:13.180Z,1003.66
2019-06-20T05:50:13.289Z,1003.68
2019-06-20T05:51:13.232Z,1003.81
2019-06-20T05:52:13.143Z,1003.96
2019-06-20T05:53:13.151Z,1004.07
2019-06-20T05:54:13.119Z,1004.11
2019-06-20T05:55:13.118Z,1004.06
2019-06-20T05:56:13.099Z,1004.17
2019-06-20T05:57:13.084Z,1004.22
2019-06-20T05:58:13.102Z,1004.31
2019-06-20T05:59:13.082Z,1004.39
2019-06-20T06:00:13.066Z,1004.38
2019-06-20T06:01:13.043Z,1004.43
2019-06-20T06:02:13.032Z,1004.45
2019-06-20T06:03:13.831Z,1004.44
2019-06-20T06:04:13.015Z,1004.42
2019-06-20T06:05:13.006Z,1004.32
2019-06-20T06:06:12.992Z,1004.34
2019-06-20T06:07:14.252Z,1004.38
2019-06-20T06:08:12.979Z,1004.43
2019-06-20T06:09:12.956Z,1004.51
2019-06-20T06:10:12.985Z,1004.63
2019-06-20T06:11:12.941Z,1004.55
2019-06-20T06:12:12.919Z,1004.65
2019-06-20T06:13:12.941Z,1004.78
2019-06-20T06:14:13.874Z,1004.88
2019-06-20T06:15:12.909Z,1004.88
2019-06-20T06:16:25.635Z,1004.90
2019-06-20T06:17:13.871Z,1005.06
2019-06-20T06:18:14.124Z,1005.08
2019-06-20T06:19:12.846Z,1005.14
2019-06-20T06:20:12.840Z,1005.14
2019-06-20T06:21:12.823Z,1005.22
2019-06-20T06:22:12.817Z,1005.34
2019-06-20T06:23:12.808Z,1005.69
2019-06-20T06:24:12.803Z,1006.15
2019-06-20T06:25:12.784Z,1006.20
2019-06-20T06:26:12.769Z,1006.13
2019-06-20T06:27:12.757Z,1006.02
2019-06-20T06:28:12.852Z,1006.28
2019-06-20T06:29:12.752Z,1006.39
2019-06-20T06:30:12.727Z,1006.34
2019-06-20T06:31:12.719Z,1006.20
2019-06-20T06:32:12.703Z,1006.12
2019-06-20T06:33:12.691Z,1006.15
2019-06-20T06:34:12.687Z,1006.17
2019-06-20T06:35:12.720Z,1006.26
2019-06-20T06:36:12.667Z,1006.40
2019-06-20T06:37:12.648Z,1006.38
2019-06-20T06:38:12.635Z,1006.26
2019-06-20T06:39:12.626Z,1006.17
2019-06-20T06:40:12.622Z,1006.19
2019-06-20T06:41:12.622Z,1006.26
2019-06-20T06:42:12.593Z,1006.33
2019-06-20T06:43:12.579Z,1006.39
2019-06-20T06:44:12.582Z,1006.38
2019-06-20T06:45:12.569Z,1006.33
2019-06-20T06:46:12.552Z,1006.21
2019-06-20T06:47:12.551Z,1006.20
2019-06-20T06:48:12.527Z,1006.19
2019-06-20T06:49:12.521Z,1006.25
2019-06-20T06:50:12.504Z,1006.28
2019-06-20T06:51:12.506Z,1006.24
2019-06-20T06:52:12.487Z,1006.19
2019-06-20T06:53:12.467Z,1006.19
2019-06-20T06:54:12.456Z,1006.17
2019-06-20T06:55:12.452Z,1006.17
2019-06-20T06:56:12.448Z,1006.20
2019-06-20T06:57:12.433Z,1006.18
2019-06-20T06:58:12.423Z,1006.14
2019-06-20T06:59:12.406Z,1006.12
2019-06-20T07:00:12.394Z,1006.12
2019-06-20T07:01:12.378Z,1006.03
2019-06-20T07:02:12.368Z,1006.07
2019-06-20T07:03:12.375Z,1006.02
2019-06-20T07:04:12.352Z,1006.02
2019-06-20T07:05:12.342Z,1006.05
2019-06-20T07:06:12.325Z,1006.10
2019-06-20T07:07:12.324Z,1006.11
2019-06-20T07:08:12.317Z,1006.10
2019-06-20T07:09:12.293Z,1006.15
2019-06-20T07:10:12.288Z,1006.13
2019-06-20T07:11:12.266Z,1006.12
2019-06-20T07:12:12.262Z,1006.15
2019-06-20T07:13:12.268Z,1006.12
2019-06-20T07:14:12.246Z,1006.06
2019-06-20T07:15:12.231Z,1006.07
2019-06-20T07:16:12.217Z,1006.01
2019-06-20T07:17:12.242Z,1005.97
2019-06-20T07:18:12.208Z,1005.94
2019-06-20T07:19:12.207Z,1005.88
2019-06-20T07:20:15.127Z,1005.93
2019-06-20T07:21:12.164Z,1005.87
2019-06-20T07:22:12.182Z,1005.91
2019-06-20T07:23:12.143Z,1005.86
2019-06-20T07:24:12.168Z,1005.82
2019-06-20T07:25:12.122Z,1005.85
2019-06-20T07:26:12.110Z,1005.84
2019-06-20T07:27:12.090Z,1005.86
2019-06-20T07:28:12.078Z,1005.80
2019-06-20T07:29:12.073Z,1005.78
2019-06-20T07:30:12.078Z,1005.85
2019-06-20T07:31:12.082Z,1005.92
2019-06-20T07:32:12.044Z,1005.92
2019-06-20T07:33:12.081Z,1006.00
2019-06-20T07:34:12.019Z,1006.01
2019-06-20T07:35:12.035Z,1006.02
2019-06-20T07:36:11.997Z,1006.02
2019-06-20T07:37:11.992Z,1006.00
2019-06-20T07:38:11.977Z,1006.02
2019-06-20T07:39:11.961Z,1005.96
2019-06-20T07:40:11.971Z,1005.92
2019-06-20T07:41:11.962Z,1005.84
2019-06-20T07:42:11.939Z,1005.83
2019-06-20T07:43:11.920Z,1005.75
2019-06-20T07:44:11.930Z,1005.80
2019-06-20T07:45:11.915Z,1005.72
2019-06-20T07:46:11.903Z,1005.73
2019-06-20T07:47:17.648Z,1005.69
2019-06-20T07:48:12.860Z,1005.70
2019-06-20T07:49:11.852Z,1005.73
2019-06-20T07:50:11.844Z,1005.78
2019-06-20T07:51:11.857Z,1005.86
2019-06-20T07:52:11.817Z,1005.87
2019-06-20T07:53:11.819Z,1005.86
2019-06-20T07:54:11.811Z,1005.84
2019-06-20T07:55:11.786Z,1005.85
2019-06-20T07:56:11.795Z,1005.82
2019-06-20T07:57:11.769Z,1005.84
2019-06-20T07:58:11.755Z,1005.84
2019-06-20T07:59:11.750Z,1005.80
2019-06-20T08:00:11.738Z,1005.81
2019-06-20T08:01:11.742Z,1005.82
2019-06-20T08:02:11.712Z,1005.80
2019-06-20T08:03:11.708Z,1005.80
2019-06-20T08:04:11.688Z,1005.78
2019-06-20T08:05:11.687Z,1005.75
2019-06-20T08:06:11.675Z,1005.76
2019-06-20T08:07:11.656Z,1005.75
2019-06-20T08:08:11.656Z,1005.69
2019-06-20T08:09:11.679Z,1005.68
2019-06-20T08:10:11.645Z,1005.67
2019-06-20T08:11:11.706Z,1005.69
2019-06-20T08:12:11.616Z,1005.65
2019-06-20T08:13:11.589Z,1005.70
2019-06-20T08:14:11.584Z,1005.70
2019-06-20T08:15:15.703Z,1005.63
2019-06-20T08:16:11.559Z,1005.62
2019-06-20T08:17:11.577Z,1005.70
2019-06-20T08:18:11.536Z,1005.72
2019-06-20T08:19:11.525Z,1005.62
2019-06-20T08:20:11.525Z,1005.66
2019-06-20T08:21:11.506Z,1005.64
2019-06-20T08:22:11.497Z,1005.68
2019-06-20T08:23:11.612Z,1005.67
2019-06-20T08:24:11.470Z,1005.63
2019-06-20T08:25:11.458Z,1005.64
2019-06-20T08:26:11.453Z,1005.61
2019-06-20T08:27:14.781Z,1005.54
2019-06-20T08:28:11.429Z,1005.54
2019-06-20T08:29:20.581Z,1005.51
2019-06-20T08:30:12.402Z,1005.49
2019-06-20T08:31:11.401Z,1005.48
2019-06-20T08:32:11.452Z,1005.51
2019-06-20T08:33:12.263Z,1005.55
2019-06-20T08:34:11.360Z,1005.61
2019-06-20T08:35:11.370Z,1005.67
2019-06-20T08:36:11.360Z,1005.68
2019-06-20T08:37:11.326Z,1005.80
2019-06-20T08:38:11.320Z,1005.72
2019-06-20T08:39:11.308Z,1005.62
2019-06-20T08:40:11.315Z,1005.46
2019-06-20T08:41:11.310Z,1005.50
2019-06-20T08:42:11.284Z,1005.55
2019-06-20T08:43:11.262Z,1005.58
2019-06-20T08:44:11.254Z,1005.68
2019-06-20T08:45:11.254Z,1005.75
2019-06-20T08:46:11.227Z,1005.80
2019-06-20T08:47:11.227Z,1005.88
2019-06-20T08:48:11.207Z,1005.81
2019-06-20T08:49:11.200Z,1005.80
2019-06-20T08:50:11.226Z,1005.87
2019-06-20T08:51:14.469Z,1005.82
2019-06-20T08:52:11.176Z,1005.81
2019-06-20T08:53:11.155Z,1005.82
2019-06-20T08:54:11.146Z,1005.88
2019-06-20T08:55:11.138Z,1005.93
2019-06-20T08:56:11.140Z,1005.95
2019-06-20T08:57:11.115Z,1005.98
2019-06-20T08:58:11.099Z,1005.99
2019-06-20T08:59:23.826Z,1005.93
2019-06-20T09:00:12.081Z,1005.87
2019-06-20T09:01:11.091Z,1005.97
2019-06-20T09:02:11.070Z,1005.91
2019-06-20T09:03:11.049Z,1005.92
2019-06-20T09:04:11.040Z,1005.94
2019-06-20T09:05:11.030Z,1005.96
2019-06-20T09:06:11.037Z,1005.94
2019-06-20T09:07:11.004Z,1006.02
2019-06-20T09:08:11.817Z,1006.02
2019-06-20T09:09:10.984Z,1006.02
2019-06-20T09:10:10.970Z,1006.06
2019-06-20T09:11:10.994Z,1006.01
2019-06-20T09:12:10.954Z,1005.93
2019-06-20T09:13:10.940Z,1005.95
2019-06-20T09:14:10.929Z,1005.93
2019-06-20T09:15:10.921Z,1005.90
2019-06-20T09:16:23.982Z,1005.97
2019-06-20T09:17:11.921Z,1005.95
2019-06-20T09:18:10.892Z,1005.97
2019-06-20T09:19:10.872Z,1005.92
2019-06-20T09:20:10.866Z,1005.89
2019-06-20T09:21:10.855Z,1005.90
2019-06-20T09:22:10.851Z,1005.86
2019-06-20T09:23:10.858Z,1005.84
2019-06-20T09:24:10.828Z,1005.87
2019-06-20T09:25:10.810Z,1005.87
2019-06-20T09:26:10.807Z,1005.86
2019-06-20T09:27:10.814Z,1005.84
2019-06-20T09:28:10.790Z,1005.85
2019-06-20T09:29:10.770Z,1005.86
2019-06-20T09:30:10.760Z,1005.90
2019-06-20T09:31:10.743Z,1005.92
2019-06-20T09:32:10.755Z,1005.92
2019-06-20T09:33:10.730Z,1005.94
2019-06-20T09:34:10.730Z,1005.96
2019-06-20T09:35:10.700Z,1005.94
2019-06-20T09:36:10.697Z,1005.96
2019-06-20T09:37:10.697Z,1005.96
2019-06-20T09:38:10.672Z,1005.99
2019-06-20T09:39:10.677Z,1006.02
2019-06-20T09:40:10.666Z,1006.10
2019-06-20T09:41:10.640Z,1006.17
2019-06-20T09:42:10.629Z,1006.23
2019-06-20T09:43:10.623Z,1006.28
2019-06-20T09:44:10.627Z,1006.27
2019-06-20T09:45:10.605Z,1006.25
2019-06-20T09:46:10.589Z,1006.23
2019-06-20T09:47:10.577Z,1006.24
2019-06-20T09:48:10.559Z,1006.27
2019-06-20T09:49:10.563Z,1006.31
2019-06-20T09:50:10.573Z,1006.38
2019-06-20T09:51:10.528Z,1006.35
2019-06-20T09:52:10.555Z,1006.31
2019-06-20T09:53:10.507Z,1006.34
2019-06-20T09:54:10.494Z,1006.32
2019-06-20T09:55:10.484Z,1006.35
2019-06-20T09:56:10.499Z,1006.37
2019-06-20T09:57:10.465Z,1006.41
2019-06-20T09:58:10.457Z,1006.39
2019-06-20T09:59:26.681Z,1006.39
2019-06-20T10:00:11.523Z,1006.37
2019-06-20T10:01:10.427Z,1006.45
2019-06-20T10:02:10.413Z,1006.37
2019-06-20T10:03:10.400Z,1006.41
2019-06-20T10:04:10.396Z,1006.38
2019-06-20T10:05:10.389Z,1006.33
2019-06-20T10:06:13.903Z,1006.35
2019-06-20T10:07:10.354Z,1006.49
2019-06-20T10:08:10.348Z,1006.37
2019-06-20T10:09:10.336Z,1006.44
2019-06-20T10:10:10.335Z,1006.44
2019-06-20T10:11:10.311Z,1006.42
2019-06-20T10:12:10.325Z,1006.42
2019-06-20T10:13:10.291Z,1006.44
2019-06-20T10:14:10.284Z,1006.49
2019-06-20T10:15:10.274Z,1006.61
2019-06-20T10:16:10.265Z,1006.97
2019-06-20T10:17:10.267Z,1007.02
2019-06-20T10:18:10.237Z,1007.09
2019-06-20T10:19:12.668Z,1007.11
2019-06-20T10:20:10.221Z,1007.17
2019-06-20T10:21:10.211Z,1007.19
2019-06-20T10:22:10.226Z,1007.25
2019-06-20T10:23:10.191Z,1007.34
2019-06-20T10:24:10.214Z,1007.32
2019-06-20T10:25:10.167Z,1007.31
2019-06-20T10:26:10.167Z,1007.33
2019-06-20T10:27:10.163Z,1007.38
2019-06-20T10:28:10.168Z,1007.38
2019-06-20T10:29:10.128Z,1007.03
2019-06-20T10:30:14.243Z,1006.91
2019-06-20T10:31:10.110Z,1007.34
2019-06-20T10:32:10.131Z,1007.35
2019-06-20T10:33:10.113Z,1007.34
2019-06-20T10:34:10.082Z,1007.35
2019-06-20T10:35:10.076Z,1007.35
2019-06-20T10:36:10.064Z,1007.28
2019-06-20T10:37:10.056Z,1006.94
2019-06-20T10:38:10.049Z,1006.77
2019-06-20T10:39:10.077Z,1006.75
2019-06-20T10:40:10.036Z,1006.67
2019-06-20T10:41:10.023Z,1006.67
2019-06-20T10:42:10.009Z,1006.68
2019-06-20T10:43:10.016Z,1006.70
2019-06-20T10:44:10.034Z,1006.64
2019-06-20T10:45:09.975Z,1006.60
2019-06-20T10:46:09.971Z,1006.70
2019-06-20T10:47:09.956Z,1006.67
2019-06-20T10:48:09.944Z,1006.66
2019-06-20T10:49:09.934Z,1006.67
2019-06-20T10:50:09.948Z,1006.68
2019-06-20T10:51:09.941Z,1006.66
2019-06-20T10:52:09.908Z,1006.61
2019-06-20T10:53:09.899Z,1006.63
2019-06-20T10:54:09.940Z,1006.64
2019-06-20T10:55:09.871Z,1006.64
2019-06-20T10:56:09.891Z,1006.65
2019-06-20T10:57:09.852Z,1006.67
2019-06-20T10:58:09.846Z,1006.67
2019-06-20T10:59:09.854Z,1006.77
2019-06-20T11:00:09.844Z,1006.75
2019-06-20T11:01:09.809Z,1006.76
2019-06-20T11:02:09.811Z,1007.14
2019-06-20T11:03:09.794Z,1007.13
2019-06-20T11:04:09.781Z,1007.18
2019-06-20T11:05:09.798Z,1007.21
2019-06-20T11:06:09.756Z,1007.26
2019-06-20T11:07:09.748Z,1007.24
2019-06-20T11:08:09.752Z,1007.22
2019-06-20T11:09:09.740Z,1007.24
2019-06-20T11:10:09.719Z,1007.24
2019-06-20T11:11:09.720Z,1007.17
2019-06-20T11:12:09.703Z,1007.18
2019-06-20T11:13:09.693Z,1007.08
2019-06-20T11:14:09.684Z,1007.14
2019-06-20T11:15:09.691Z,1007.09
2019-06-20T11:16:09.674Z,1006.95
2019-06-20T11:17:09.649Z,1006.90
2019-06-20T11:18:09.646Z,1006.88
2019-06-20T11:19:09.633Z,1006.89
2019-06-20T11:20:09.621Z,1006.86
2019-06-20T11:21:09.629Z,1006.84
2019-06-20T11:22:09.606Z,1006.81
2019-06-20T11:23:09.594Z,1006.84
2019-06-20T11:24:09.580Z,1006.77
2019-06-20T11:25:09.572Z,1006.72
2019-06-20T11:26:09.583Z,1006.74
2019-06-20T11:27:09.555Z,1006.74
2019-06-20T11:28:09.545Z,1006.77
2019-06-20T11:29:09.532Z,1006.74
2019-06-20T11:30:09.525Z,1006.84
2019-06-20T11:31:09.526Z,1006.82
2019-06-20T11:32:09.525Z,1006.83
2019-06-20T11:33:09.525Z,1006.88
2019-06-20T11:34:09.477Z,1006.82
2019-06-20T11:35:09.477Z,1006.88
2019-06-20T11:36:09.543Z,1006.81
2019-06-20T11:37:09.491Z,1006.83
2019-06-20T11:38:09.440Z,1006.86
2019-06-20T11:39:09.445Z,1006.72
2019-06-20T11:40:09.416Z,1006.80
2019-06-20T11:41:09.409Z,1006.82
2019-06-20T11:42:09.411Z,1006.55
2019-06-20T11:43:09.389Z,1006.55
2019-06-20T11:44:09.397Z,1006.69
2019-06-20T11:45:09.377Z,1006.71
2019-06-20T11:46:09.360Z,1006.70
2019-06-20T11:47:09.348Z,1006.75
2019-06-20T11:48:09.332Z,1006.69
2019-06-20T11:49:09.328Z,1006.62
2019-06-20T11:50:09.340Z,1006.59
2019-06-20T11:51:09.307Z,1006.58
2019-06-20T11:52:09.409Z,1006.60
2019-06-20T11:53:09.285Z,1006.62
2019-06-20T11:54:09.274Z,1006.60
2019-06-20T11:55:09.264Z,1006.67
2019-06-20T11:56:09.309Z,1006.60
2019-06-20T11:57:09.245Z,1006.65
2019-06-20T11:58:09.231Z,1006.65
2019-06-20T11:59:09.246Z,1006.65
2019-06-20T12:00:09.213Z,1006.61
2019-06-20T12:01:09.197Z,1006.58
2019-06-20T12:02:09.211Z,1006.56
2019-06-20T12:03:09.175Z,1006.61
2019-06-20T12:04:09.544Z,1006.58
2019-06-20T12:05:09.160Z,1006.58